Time;durP1;ratioP1;P1;durP2;ratioP2;P2;SDS_P1;SDS_P2;PMS_P1;PMS_P2;Temp;Humidity;BMP_temperature;BMP_pressure;BME280_temperature;BME280_humidity;BME280_pressure;Samples;Min_cycle;Max_cycle;Signal;HPM_P1;HPM_P2
2021/03/05 00:00:12;;;;;;;26.88;16.23;;;;;;;;;;10317463;28;20040;-60
2021/03/05 00:05:11;;;;;;;20.27;12.55;;;;;;;;;;10315963;28;20090;-60
2021/03/05 00:10:09;;;;;;;30.25;18.27;;;;;;;;;;10316848;28;20087;-60
2021/03/05 00:15:08;;;;;;;30.67;17.17;;;;;;;;;;10316866;28;20056;-60
2021/03/05 00:20:09;;;;;;;25.55;16.10;;;;;;;;;;10316252;28;20041;-60
2021/03/05 00:25:07;;;;;;;29.85;16.95;;;;;;;;;;10316869;28;20041;-60
2021/03/05 00:30:06;;;;;;;25.70;15.55;;;;;;;;;;10315084;28;20095;-60
2021/03/05 00:35:05;;;;;;;61.08;28.10;;;;;;;;;;10315823;28;20079;-59
2021/03/05 00:40:03;;;;;;;85.07;35.63;;;;;;;;;;10316550;28;20076;-58
2021/03/05 00:45:00;;;;;;;118.07;46.78;;;;;;;;;;10316388;28;20226;-61
2021/03/05 00:49:58;;;;;;;75.47;32.35;;;;;;;;;;10316709;28;20040;-59
2021/03/05 00:54:56;;;;;;;79.60;36.10;;;;;;;;;;10315958;28;20525;-61
2021/03/05 00:59:54;;;;;;;66.82;27.63;;;;;;;;;;10314973;28;20494;-60
2021/03/05 01:04:51;;;;;;;58.67;26.48;;;;;;;;;;10314684;28;20049;-60
2021/03/05 01:09:49;;;;;;;62.53;28.85;;;;;;;;;;10315617;28;20057;-59
2021/03/05 01:14:47;;;;;;;30.77;15.98;;;;;;;;;;10315499;28;20059;-60
2021/03/05 01:19:45;;;;;;;46.97;21.67;;;;;;;;;;10315790;28;20056;-58
2021/03/05 01:24:42;;;;;;;13.75;9.85;;;;;;;;;;10315334;28;20064;-58
2021/03/05 01:29:39;;;;;;;13.13;9.52;;;;;;;;;;10321030;28;20433;-60
2021/03/05 01:34:37;;;;;;;16.73;10.48;;;;;;;;;;10322403;28;20094;-59
2021/03/05 01:39:35;;;;;;;22.13;13.02;;;;;;;;;;10322282;28;20040;-60
2021/03/05 01:44:33;;;;;;;13.73;10.73;;;;;;;;;;10321683;28;20052;-59
2021/03/05 01:49:30;;;;;;;16.15;11.02;;;;;;;;;;10321906;28;20079;-60
2021/03/05 01:54:28;;;;;;;19.58;12.18;;;;;;;;;;10321684;28;20072;-59
2021/03/05 01:59:28;;;;;;;16.25;10.65;;;;;;;;;;10320711;28;20075;-60
2021/03/05 02:04:26;;;;;;;16.13;10.60;;;;;;;;;;10321575;28;20055;-59
2021/03/05 02:09:32;;;;;;;12.95;9.95;;;;;;;;;;10321440;28;20056;-60
2021/03/05 02:14:30;;;;;;;77.35;47.83;;;;;;;;;;10321124;28;20068;-60
2021/03/05 02:19:44;;;;;;;14.73;11.00;;;;;;;;;;10320917;28;20037;-59
2021/03/05 02:24:56;;;;;;;16.00;11.45;;;;;;;;;;10320737;28;20072;-60
2021/03/05 02:30:11;;;;;;;18.33;12.85;;;;;;;;;;10307782;28;20433;-60
2021/03/05 02:35:10;;;;;;;18.90;11.57;;;;;;;;;;10320850;28;20060;-60
2021/03/05 02:40:09;;;;;;;15.80;11.20;;;;;;;;;;10320179;28;20041;-58
2021/03/05 02:45:08;;;;;;;15.20;11.88;;;;;;;;;;10319510;28;20056;-59
2021/03/05 02:50:06;;;;;;;14.50;12.40;;;;;;;;;;10319746;28;20045;-59
2021/03/05 02:55:05;;;;;;;15.55;11.93;;;;;;;;;;10319718;28;20056;-58
2021/03/05 03:00:04;;;;;;;17.10;12.68;;;;;;;;;;10319377;28;20079;-59
2021/03/05 03:05:03;;;;;;;17.58;11.88;;;;;;;;;;10318801;28;20071;-59
2021/03/05 03:10:19;;;;;;;17.92;12.05;;;;;;;;;;10319186;28;20274;-60
2021/03/05 03:15:17;;;;;;;20.83;13.10;;;;;;;;;;10318953;28;20378;-60
2021/03/05 03:20:17;;;;;;;17.95;11.52;;;;;;;;;;10318763;28;20405;-59
2021/03/05 03:25:14;;;;;;;19.95;13.20;;;;;;;;;;10317892;28;20044;-60
2021/03/05 03:30:14;;;;;;;17.63;12.95;;;;;;;;;;10317819;28;20097;-60
2021/03/05 03:35:12;;;;;;;26.05;18.48;;;;;;;;;;10318062;28;20386;-60
2021/03/05 03:40:11;;;;;;;28.10;14.52;;;;;;;;;;10318118;28;20476;-60
2021/03/05 03:45:10;;;;;;;17.80;13.23;;;;;;;;;;10317671;28;20052;-60
2021/03/05 03:50:13;;;;;;;16.75;12.82;;;;;;;;;;10317454;28;20076;-59
2021/03/05 03:55:12;;;;;;;17.67;12.57;;;;;;;;;;10316843;28;20086;-59
2021/03/05 04:00:10;;;;;;;18.77;14.35;;;;;;;;;;10317482;28;20048;-59
2021/03/05 04:05:12;;;;;;;20.65;14.25;;;;;;;;;;10316897;28;20510;-60
2021/03/05 04:10:10;;;;;;;21.73;15.25;;;;;;;;;;10316202;28;20425;-60
2021/03/05 04:15:08;;;;;;;22.00;15.52;;;;;;;;;;10316851;28;20139;-59
2021/03/05 04:20:06;;;;;;;18.80;14.98;;;;;;;;;;10317020;28;20056;-59
2021/03/05 04:25:05;;;;;;;19.27;13.88;;;;;;;;;;10316741;28;20052;-58
2021/03/05 04:30:03;;;;;;;20.58;13.85;;;;;;;;;;10316070;28;20056;-59
2021/03/05 04:35:01;;;;;;;19.83;12.95;;;;;;;;;;10316307;28;20080;-59
2021/03/05 04:39:58;;;;;;;22.88;15.00;;;;;;;;;;10314879;28;20521;-60
2021/03/05 04:44:58;;;;;;;19.90;14.15;;;;;;;;;;10312295;28;20071;-60
2021/03/05 04:49:55;;;;;;;21.23;14.80;;;;;;;;;;10311796;28;20505;-60
2021/03/05 04:54:52;;;;;;;22.38;14.65;;;;;;;;;;10312477;28;20072;-60
2021/03/05 04:59:50;;;;;;;26.55;17.85;;;;;;;;;;10316889;28;20505;-60
2021/03/05 05:04:48;;;;;;;19.58;14.52;;;;;;;;;;10322859;28;20087;-60
2021/03/05 05:09:45;;;;;;;20.77;15.63;;;;;;;;;;10323577;28;20047;-60
2021/03/05 05:14:42;;;;;;;21.23;14.57;;;;;;;;;;10323497;28;20072;-60
2021/03/05 05:19:40;;;;;;;20.17;15.38;;;;;;;;;;10323189;28;20052;-60
2021/03/05 05:24:38;;;;;;;21.33;14.45;;;;;;;;;;10322893;28;20410;-60
2021/03/05 05:29:35;;;;;;;22.08;14.40;;;;;;;;;;10322559;28;20217;-60
2021/03/05 05:34:32;;;;;;;33.33;20.48;;;;;;;;;;10322657;28;20087;-60
2021/03/05 05:39:30;;;;;;;30.67;19.13;;;;;;;;;;10322062;28;20517;-60
2021/03/05 05:44:28;;;;;;;26.95;19.15;;;;;;;;;;10322213;28;20049;-60
2021/03/05 05:49:27;;;;;;;20.20;16.55;;;;;;;;;;10322125;28;20428;-60
2021/03/05 05:54:24;;;;;;;24.35;16.60;;;;;;;;;;10321852;28;20079;-59
2021/03/05 05:59:24;;;;;;;48.83;25.45;;;;;;;;;;10320943;28;20040;-59
2021/03/05 06:04:23;;;;;;;31.00;19.30;;;;;;;;;;10321364;28;20044;-60
2021/03/05 06:09:22;;;;;;;93.70;63.65;;;;;;;;;;10321849;28;20044;-60
2021/03/05 06:14:20;;;;;;;40.17;24.35;;;;;;;;;;10320275;28;20079;-60
2021/03/05 06:19:18;;;;;;;37.90;27.05;;;;;;;;;;10321114;28;20048;-60
2021/03/05 06:24:17;;;;;;;26.55;17.75;;;;;;;;;;10320267;28;20072;-60
2021/03/05 06:29:14;;;;;;;24.77;16.73;;;;;;;;;;10320342;28;20083;-62
2021/03/05 06:34:11;;;;;;;21.55;16.98;;;;;;;;;;10319992;28;20505;-60
2021/03/05 06:39:09;;;;;;;26.63;21.73;;;;;;;;;;10320033;28;20049;-59
2021/03/05 06:44:07;;;;;;;26.50;19.98;;;;;;;;;;10320606;28;20048;-61
2021/03/05 06:49:06;;;;;;;31.83;22.27;;;;;;;;;;10319952;28;20055;-61
2021/03/05 06:54:05;;;;;;;24.08;19.42;;;;;;;;;;10319760;28;20083;-61
2021/03/05 06:59:03;;;;;;;24.27;19.02;;;;;;;;;;10319226;28;20043;-61
2021/03/05 07:04:05;;;;;;;20.60;17.58;;;;;;;;;;10319084;28;20048;-61
2021/03/05 07:09:04;;;;;;;36.42;18.23;;;;;;;;;;10318933;28;20044;-61
2021/03/05 07:14:02;;;;;;;30.00;18.33;;;;;;;;;;10318588;28;20076;-61
2021/03/05 07:18:59;;;;;;;22.63;17.73;;;;;;;;;;10318602;28;20251;-60
2021/03/05 07:23:59;;;;;;;29.45;18.10;;;;;;;;;;10316615;28;20048;-61
2021/03/05 07:28:57;;;;;;;22.60;17.98;;;;;;;;;;10317798;28;20290;-61
2021/03/05 07:33:58;;;;;;;25.35;20.13;;;;;;;;;;10317812;28;20048;-61
2021/03/05 07:38:57;;;;;;;35.03;23.98;;;;;;;;;;10317618;28;20114;-61
2021/03/05 07:43:55;;;;;;;48.13;33.30;;;;;;;;;;10317264;28;20490;-60
2021/03/05 07:48:53;;;;;;;30.30;19.42;;;;;;;;;;10317546;28;20051;-61
2021/03/05 07:53:51;;;;;;;34.75;20.42;;;;;;;;;;10317575;28;20079;-61
2021/03/05 07:58:48;;;;;;;79.53;23.45;;;;;;;;;;10317794;28;20045;-61
2021/03/05 08:03:53;;;;;;;46.78;19.40;;;;;;;;;;10316846;28;20080;-61
2021/03/05 08:09:05;;;;;;;47.50;25.17;;;;;;;;;;10317108;28;20079;-60
2021/03/05 08:14:17;;;;;;;39.67;19.23;;;;;;;;;;10316781;28;20402;-60
2021/03/05 08:19:45;;;;;;;61.13;21.52;;;;;;;;;;10316282;28;20433;-61
2021/03/05 08:24:46;;;;;;;52.22;21.42;;;;;;;;;;10317078;28;20162;-61
2021/03/05 08:30:09;;;;;;;45.33;20.70;;;;;;;;;;10315953;28;20434;-61
2021/03/05 08:35:07;;;;;;;52.38;20.45;;;;;;;;;;10317137;28;20079;-61
2021/03/05 08:40:24;;;;;;;42.17;20.35;;;;;;;;;;10324981;28;20064;-61
2021/03/05 08:45:23;;;;;;;39.35;18.88;;;;;;;;;;10325148;28;20417;-61
2021/03/05 08:50:22;;;;;;;38.03;19.17;;;;;;;;;;10324692;28;20045;-61
2021/03/05 08:55:21;;;;;;;31.20;17.27;;;;;;;;;;10324360;28;20072;-61
2021/03/05 09:00:19;;;;;;;27.67;18.20;;;;;;;;;;10324296;28;20063;-61
2021/03/05 09:05:25;;;;;;;36.80;19.38;;;;;;;;;;10323974;28;20079;-60
2021/03/05 09:10:36;;;;;;;31.55;17.50;;;;;;;;;;10323866;28;20044;-61
2021/03/05 09:15:43;;;;;;;28.05;18.15;;;;;;;;;;10323927;28;20083;-61
2021/03/05 09:20:44;;;;;;;40.00;19.83;;;;;;;;;;10323598;28;20049;-61
2021/03/05 09:25:46;;;;;;;26.90;17.25;;;;;;;;;;10323488;28;20059;-61
2021/03/05 09:30:48;;;;;;;28.75;18.55;;;;;;;;;;10322378;28;20048;-60
2021/03/05 09:35:47;;;;;;;32.92;21.83;;;;;;;;;;10323372;28;20528;-61
2021/03/05 09:40:44;;;;;;;25.67;17.65;;;;;;;;;;10323240;28;20053;-60
2021/03/05 09:45:43;;;;;;;26.67;19.50;;;;;;;;;;10322511;28;20410;-60
2021/03/05 09:50:41;;;;;;;28.77;21.65;;;;;;;;;;10321842;28;20071;-61
2021/03/05 09:55:39;;;;;;;26.70;18.38;;;;;;;;;;10322187;28;20079;-61
2021/03/05 10:00:37;;;;;;;24.42;15.70;;;;;;;;;;10322443;28;20450;-62
2021/03/05 10:05:35;;;;;;;22.77;16.70;;;;;;;;;;10321776;28;20083;-62
2021/03/05 10:10:32;;;;;;;22.65;15.70;;;;;;;;;;10321586;28;20490;-62
2021/03/05 10:15:47;;;;;;;23.38;14.77;;;;;;;;;;10321265;28;20076;-61
2021/03/05 10:20:50;;;;;;;24.27;17.67;;;;;;;;;;10321135;28;20083;-61
2021/03/05 10:25:50;;;;;;;19.20;14.40;;;;;;;;;;10321297;28;20056;-61
2021/03/05 10:30:51;;;;;;;16.00;12.50;;;;;;;;;;10319010;28;20059;-61
2021/03/05 10:35:49;;;;;;;20.23;14.70;;;;;;;;;;10320683;28;20076;-61
2021/03/05 10:40:46;;;;;;;19.40;13.75;;;;;;;;;;10320534;28;20036;-61
2021/03/05 10:46:05;;;;;;;18.40;14.23;;;;;;;;;;10320478;28;20056;-61
2021/03/05 10:51:02;;;;;;;26.60;16.33;;;;;;;;;;10320074;28;20037;-61
2021/03/05 10:55:59;;;;;;;18.77;12.93;;;;;;;;;;10319813;28;20072;-61
2021/03/05 11:00:57;;;;;;;28.42;19.55;;;;;;;;;;10319185;28;20059;-61
2021/03/05 11:05:56;;;;;;;23.73;13.77;;;;;;;;;;10318930;28;20044;-59
2021/03/05 11:10:53;;;;;;;17.88;11.38;;;;;;;;;;10319386;28;20379;-60
2021/03/05 11:15:51;;;;;;;25.83;12.40;;;;;;;;;;10318927;28;20500;-60
2021/03/05 11:20:48;;;;;;;46.40;18.05;;;;;;;;;;10318730;28;20083;-59
2021/03/05 11:25:46;;;;;;;24.65;16.17;;;;;;;;;;10317916;28;20076;-60
2021/03/05 11:30:45;;;;;;;20.55;13.98;;;;;;;;;;10318093;28;20107;-60
2021/03/05 11:35:42;;;;;;;34.78;16.13;;;;;;;;;;10318079;28;20068;-59
2021/03/05 11:40:40;;;;;;;19.80;14.25;;;;;;;;;;10316406;28;20068;-61
2021/03/05 11:45:38;;;;;;;17.98;13.82;;;;;;;;;;10314058;28;20541;-62
2021/03/05 11:50:35;;;;;;;63.40;40.17;;;;;;;;;;10313522;28;20102;-62
2021/03/05 11:55:33;;;;;;;26.77;17.17;;;;;;;;;;10313181;28;20502;-63
2021/03/05 12:00:31;;;;;;;21.17;13.95;;;;;;;;;;10316703;28;20083;-63
2021/03/05 12:05:29;;;;;;;17.65;12.95;;;;;;;;;;10317414;28;20068;-63
2021/03/05 12:10:32;;;;;;;15.70;12.98;;;;;;;;;;10316950;28;20040;-61
2021/03/05 12:15:29;;;;;;;21.73;12.63;;;;;;;;;;10317576;28;20086;-61
2021/03/05 12:20:27;;;;;;;21.08;13.73;;;;;;;;;;10317034;28;20052;-61
2021/03/05 12:25:26;;;;;;;19.63;13.73;;;;;;;;;;10316914;28;20422;-61
2021/03/05 12:30:24;;;;;;;30.55;17.65;;;;;;;;;;10316462;28;20052;-62
2021/03/05 12:35:22;;;;;;;23.92;12.13;;;;;;;;;;10315852;28;20131;-60
2021/03/05 12:40:21;;;;;;;27.40;17.27;;;;;;;;;;10316530;28;20056;-61
2021/03/05 12:45:19;;;;;;;27.23;13.13;;;;;;;;;;10316412;28;20095;-61
2021/03/05 12:50:17;;;;;;;24.45;14.40;;;;;;;;;;10316450;28;20036;-61
2021/03/05 12:55:14;;;;;;;23.88;14.15;;;;;;;;;;10316255;28;20072;-61
2021/03/05 13:00:12;;;;;;;15.52;12.45;;;;;;;;;;10316547;28;20494;-61
2021/03/05 13:05:11;;;;;;;28.70;16.33;;;;;;;;;;10316154;28;20040;-59
2021/03/05 13:10:16;;;;;;;17.50;11.48;;;;;;;;;;10316160;28;20071;-60
2021/03/05 13:15:14;;;;;;;41.03;25.52;;;;;;;;;;10315750;28;20124;-61
2021/03/05 13:20:13;;;;;;;25.77;17.75;;;;;;;;;;10315945;28;20049;-61
2021/03/05 13:25:13;;;;;;;21.88;13.82;;;;;;;;;;10321349;28;20584;-60
2021/03/05 13:30:11;;;;;;;52.85;35.50;;;;;;;;;;10322940;28;20060;-61
2021/03/05 13:35:09;;;;;;;55.10;32.03;;;;;;;;;;10322718;28;20091;-60
2021/03/05 13:40:09;;;;;;;26.80;12.82;;;;;;;;;;10322613;28;20044;-59
2021/03/05 13:45:07;;;;;;;24.25;13.35;;;;;;;;;;10322785;28;20067;-60
2021/03/05 13:50:05;;;;;;;27.70;12.90;;;;;;;;;;10322476;28;20044;-59
2021/03/05 13:55:02;;;;;;;25.42;15.60;;;;;;;;;;10321940;28;20091;-60
2021/03/05 14:00:01;;;;;;;25.20;17.20;;;;;;;;;;10322020;28;20044;-60
2021/03/05 14:05:00;;;;;;;16.90;12.43;;;;;;;;;;10321689;28;20051;-60
2021/03/05 14:09:58;;;;;;;24.05;15.25;;;;;;;;;;10321875;28;20088;-60
2021/03/05 14:14:55;;;;;;;22.15;13.60;;;;;;;;;;10321253;28;20072;-61
2021/03/05 14:20:05;;;;;;;23.83;12.55;;;;;;;;;;10321734;28;20040;-61
2021/03/05 14:25:03;;;;;;;18.92;13.32;;;;;;;;;;10320271;28;20048;-61
2021/03/05 14:30:01;;;;;;;23.00;14.15;;;;;;;;;;10320365;28;20056;-61
2021/03/05 14:34:59;;;;;;;16.25;11.85;;;;;;;;;;10320341;28;20076;-61
2021/03/05 14:39:57;;;;;;;22.23;12.45;;;;;;;;;;10320669;28;20040;-59
2021/03/05 14:44:54;;;;;;;26.25;15.02;;;;;;;;;;10319427;28;20072;-61
2021/03/05 14:49:51;;;;;;;19.77;16.27;;;;;;;;;;10320056;28;20045;-60
2021/03/05 14:54:49;;;;;;;19.33;11.63;;;;;;;;;;10319494;28;20102;-60
2021/03/05 14:59:47;;;;;;;20.52;14.40;;;;;;;;;;10319657;28;20170;-61
2021/03/05 15:04:45;;;;;;;24.02;15.20;;;;;;;;;;10319250;28;20043;-61
2021/03/05 15:09:42;;;;;;;33.25;20.15;;;;;;;;;;10319186;28;20056;-61
2021/03/05 15:14:40;;;;;;;40.50;28.30;;;;;;;;;;10319591;28;20079;-60
2021/03/05 15:19:39;;;;;;;67.80;39.55;;;;;;;;;;10317310;28;20048;-61
2021/03/05 15:24:36;;;;;;;39.60;29.27;;;;;;;;;;10318402;28;20048;-61
2021/03/05 15:29:33;;;;;;;46.90;32.28;;;;;;;;;;10318064;28;20096;-61
2021/03/05 15:34:31;;;;;;;31.65;20.90;;;;;;;;;;10317990;28;20510;-61
2021/03/05 15:39:29;;;;;;;25.45;16.95;;;;;;;;;;10318187;28;20052;-60
2021/03/05 15:44:26;;;;;;;26.25;18.40;;;;;;;;;;10317632;28;20044;-60
2021/03/05 15:49:24;;;;;;;34.38;24.42;;;;;;;;;;10317511;28;20044;-60
2021/03/05 15:54:22;;;;;;;36.47;23.13;;;;;;;;;;10317086;28;20071;-60
2021/03/05 15:59:20;;;;;;;54.45;33.72;;;;;;;;;;10317728;28;20509;-60
2021/03/05 16:04:17;;;;;;;35.05;24.55;;;;;;;;;;10318069;28;20044;-61
2021/03/05 16:09:15;;;;;;;31.08;22.52;;;;;;;;;;10316969;28;20052;-61
2021/03/05 16:14:12;;;;;;;37.65;25.48;;;;;;;;;;10316997;28;20084;-61
2021/03/05 16:19:30;;;;;;;37.92;26.95;;;;;;;;;;10317183;28;20060;-61
2021/03/05 16:24:28;;;;;;;38.88;28.73;;;;;;;;;;10316994;28;20083;-61
2021/03/05 16:29:25;;;;;;;78.80;52.78;;;;;;;;;;10316220;28;20052;-61
2021/03/05 16:34:23;;;;;;;41.22;30.20;;;;;;;;;;10316420;28;20076;-60
2021/03/05 16:39:21;;;;;;;40.08;28.92;;;;;;;;;;10316990;28;20049;-61
2021/03/05 16:44:19;;;;;;;36.42;26.73;;;;;;;;;;10316216;28;20052;-60
2021/03/05 16:49:16;;;;;;;35.13;25.33;;;;;;;;;;10316095;28;20064;-60
2021/03/05 16:54:14;;;;;;;61.92;39.13;;;;;;;;;;10315993;28;20072;-60
2021/03/05 16:59:12;;;;;;;44.47;27.50;;;;;;;;;;10322083;28;20504;-61
2021/03/05 17:04:09;;;;;;;52.30;35.00;;;;;;;;;;10324558;28;20099;-60
2021/03/05 17:09:06;;;;;;;39.60;28.10;;;;;;;;;;10323984;28;20040;-60
2021/03/05 17:14:04;;;;;;;29.75;21.73;;;;;;;;;;10323644;28;20083;-61
2021/03/05 17:19:03;;;;;;;43.53;32.55;;;;;;;;;;10323104;28;20048;-60
2021/03/05 17:24:01;;;;;;;49.65;37.17;;;;;;;;;;10323099;28;20049;-60
2021/03/05 17:28:58;;;;;;;76.65;58.22;;;;;;;;;;10322946;28;20429;-61
2021/03/05 17:33:59;;;;;;;32.05;25.63;;;;;;;;;;10323015;28;20075;-61
2021/03/05 17:38:58;;;;;;;62.15;39.42;;;;;;;;;;10322512;28;20048;-61
2021/03/05 17:43:55;;;;;;;25.20;19.73;;;;;;;;;;10322127;28;20198;-60
2021/03/05 17:48:53;;;;;;;41.45;29.10;;;;;;;;;;10322368;28;20048;-60
2021/03/05 17:53:51;;;;;;;37.20;25.77;;;;;;;;;;10322056;28;20076;-60
2021/03/05 17:58:49;;;;;;;40.22;28.20;;;;;;;;;;10321598;28;20079;-60
2021/03/05 18:03:47;;;;;;;24.23;19.08;;;;;;;;;;10322051;28;20040;-61
2021/03/05 18:08:44;;;;;;;25.60;17.58;;;;;;;;;;10320719;28;20489;-60
2021/03/05 18:13:42;;;;;;;32.97;20.98;;;;;;;;;;10321007;28;20079;-60
2021/03/05 18:18:41;;;;;;;41.53;24.10;;;;;;;;;;10320756;28;20051;-60
2021/03/05 18:23:39;;;;;;;31.92;20.73;;;;;;;;;;10320759;28;20433;-60
2021/03/05 18:28:36;;;;;;;34.03;21.75;;;;;;;;;;10320310;28;20494;-59
2021/03/05 18:33:35;;;;;;;25.85;16.58;;;;;;;;;;10320693;28;20071;-60
2021/03/05 18:38:34;;;;;;;21.70;14.80;;;;;;;;;;10320472;28;20498;-60
2021/03/05 18:43:32;;;;;;;20.95;14.80;;;;;;;;;;10320071;28;20052;-61
2021/03/05 18:48:29;;;;;;;23.33;14.93;;;;;;;;;;10320133;28;20055;-61
2021/03/05 18:53:27;;;;;;;29.92;20.17;;;;;;;;;;10319766;28;20091;-60
2021/03/05 18:58:25;;;;;;;27.92;20.48;;;;;;;;;;10319284;28;20402;-60
2021/03/05 19:03:22;;;;;;;27.17;19.23;;;;;;;;;;10319056;28;20520;-60
2021/03/05 19:08:20;;;;;;;28.58;19.50;;;;;;;;;;10318794;28;20115;-60
2021/03/05 19:13:17;;;;;;;18.95;14.63;;;;;;;;;;10318685;28;20072;-61
2021/03/05 19:18:15;;;;;;;19.65;14.95;;;;;;;;;;10318767;28;20045;-60
2021/03/05 19:23:13;;;;;;;135.25;85.35;;;;;;;;;;10317345;28;20044;-60
2021/03/05 19:28:11;;;;;;;27.20;17.67;;;;;;;;;;10317808;28;20056;-62
2021/03/05 19:33:09;;;;;;;39.22;28.33;;;;;;;;;;10318477;28;20055;-60
2021/03/05 19:38:07;;;;;;;22.63;14.65;;;;;;;;;;10317368;28;20087;-60
2021/03/05 19:43:06;;;;;;;25.25;17.60;;;;;;;;;;10317618;28;20083;-59
2021/03/05 19:48:23;;;;;;;27.92;16.60;;;;;;;;;;10317149;28;20040;-60
2021/03/05 19:53:23;;;;;;;25.70;15.77;;;;;;;;;;10317409;28;20045;-59
2021/03/05 19:58:20;;;;;;;20.63;13.15;;;;;;;;;;10317660;28;20114;-60
2021/03/05 20:03:18;;;;;;;21.38;12.95;;;;;;;;;;10317669;28;20055;-59
2021/03/05 20:08:16;;;;;;;16.30;11.55;;;;;;;;;;10316497;28;20502;-60
2021/03/05 20:13:15;;;;;;;16.73;12.50;;;;;;;;;;10316413;28;20044;-60
2021/03/05 20:18:12;;;;;;;29.20;13.80;;;;;;;;;;10316743;28;20044;-61
2021/03/05 20:23:29;;;;;;;24.58;15.25;;;;;;;;;;10316654;28;20078;-61
2021/03/05 20:28:29;;;;;;;27.52;17.60;;;;;;;;;;10316343;28;20057;-60
2021/03/05 20:33:26;;;;;;;29.48;16.40;;;;;;;;;;10315959;28;20040;-61
2021/03/05 20:38:23;;;;;;;24.38;14.60;;;;;;;;;;10316102;28;20041;-60
2021/03/05 20:43:21;;;;;;;26.27;15.93;;;;;;;;;;10316125;28;20041;-61
2021/03/05 20:48:19;;;;;;;30.95;19.65;;;;;;;;;;10316015;28;20060;-60
2021/03/05 20:53:28;;;;;;;24.10;15.85;;;;;;;;;;10316080;28;20037;-61
2021/03/05 20:58:26;;;;;;;17.58;13.48;;;;;;;;;;10315768;28;20055;-60
2021/03/05 21:03:25;;;;;;;17.30;12.45;;;;;;;;;;10315855;28;20442;-60
2021/03/05 21:08:25;;;;;;;28.30;18.25;;;;;;;;;;10315716;28;20044;-60
2021/03/05 21:13:22;;;;;;;24.83;16.10;;;;;;;;;;10314338;28;20514;-59
2021/03/05 21:18:20;;;;;;;21.17;13.70;;;;;;;;;;10315354;28;20138;-60
2021/03/05 21:23:18;;;;;;;20.45;13.50;;;;;;;;;;10315851;28;20044;-60
2021/03/05 21:28:17;;;;;;;18.38;11.70;;;;;;;;;;10314465;28;20608;-61
2021/03/05 21:33:15;;;;;;;16.55;12.43;;;;;;;;;;10315218;28;20072;-60
2021/03/05 21:38:14;;;;;;;13.68;10.98;;;;;;;;;;10314765;28;20490;-61
2021/03/05 21:43:12;;;;;;;17.13;13.18;;;;;;;;;;10316101;28;20410;-61
2021/03/05 21:48:09;;;;;;;16.27;12.70;;;;;;;;;;10322054;28;20036;-60
2021/03/05 21:53:07;;;;;;;17.70;14.15;;;;;;;;;;10321877;28;20076;-60
2021/03/05 21:58:04;;;;;;;20.05;11.93;;;;;;;;;;10321747;28;20497;-60
2021/03/05 22:03:03;;;;;;;23.25;14.20;;;;;;;;;;10320544;28;20041;-60
2021/03/05 22:08:00;;;;;;;20.85;12.75;;;;;;;;;;10321674;28;20083;-60
2021/03/05 22:12:58;;;;;;;20.15;13.30;;;;;;;;;;10321099;28;20044;-61
2021/03/05 22:17:55;;;;;;;15.88;11.10;;;;;;;;;;10321215;28;20490;-60
2021/03/05 22:22:54;;;;;;;17.80;13.00;;;;;;;;;;10320651;28;20040;-61
2021/03/05 22:27:51;;;;;;;15.15;12.18;;;;;;;;;;10319115;28;20056;-60
2021/03/05 22:32:48;;;;;;;15.65;11.73;;;;;;;;;;10320180;28;20055;-59
2021/03/05 22:37:46;;;;;;;20.75;10.43;;;;;;;;;;10319960;28;20086;-60
2021/03/05 22:42:44;;;;;;;15.07;11.32;;;;;;;;;;10319950;28;20044;-60
2021/03/05 22:47:41;;;;;;;16.10;12.10;;;;;;;;;;10319650;28;20041;-61
2021/03/05 22:52:40;;;;;;;15.45;11.23;;;;;;;;;;10319546;28;20040;-60
2021/03/05 22:57:37;;;;;;;13.23;11.18;;;;;;;;;;10319598;28;20079;-61
2021/03/05 23:02:35;;;;;;;17.60;11.48;;;;;;;;;;10318893;28;20040;-60
2021/03/05 23:07:33;;;;;;;18.48;12.18;;;;;;;;;;10319854;28;20414;-59
2021/03/05 23:12:30;;;;;;;19.85;13.02;;;;;;;;;;10318887;28;20150;-60
2021/03/05 23:17:28;;;;;;;15.60;11.82;;;;;;;;;;10318427;28;20083;-60
2021/03/05 23:22:26;;;;;;;17.48;12.30;;;;;;;;;;10319235;28;20421;-59
2021/03/05 23:27:24;;;;;;;17.83;12.05;;;;;;;;;;10317886;28;20087;-59
2021/03/05 23:32:24;;;;;;;15.45;11.48;;;;;;;;;;10318259;28;20092;-59
2021/03/05 23:37:22;;;;;;;23.55;12.00;;;;;;;;;;10318545;28;20072;-59
2021/03/05 23:42:20;;;;;;;15.75;11.18;;;;;;;;;;10318485;28;20084;-60
2021/03/05 23:47:18;;;;;;;16.33;12.50;;;;;;;;;;10318807;28;20087;-60
2021/03/05 23:52:15;;;;;;;23.10;13.90;;;;;;;;;;10318192;28;20040;-61
2021/03/05 23:57:13;;;;;;;17.92;12.88;;;;;;;;;;10318036;28;20474;-61
